Time;durP1;ratioP1;P1;durP2;ratioP2;P2;SDS_P1;SDS_P2;PMS_P1;PMS_P2;Temp;Humidity;BMP_temperature;BMP_pressure;BME280_temperature;BME280_humidity;BME280_pressure;Samples;Min_cycle;Max_cycle;Signal;HPM_P1;HPM_P2
2022/08/21 00:02:27;;;;;;;2.78;2.20;;;15.70;1.00;;;;;;5070237;28;20210;-62
2022/08/21 00:04:55;;;;;;;2.85;2.13;;;15.60;1.00;;;;;;5071989;28;20199;-62
2022/08/21 00:07:22;;;;;;;4.97;2.40;;;15.70;1.00;;;;;;5052751;28;20211;-62
2022/08/21 00:09:49;;;;;;;3.75;2.38;;;15.80;1.00;;;;;;5081912;28;20199;-62
2022/08/21 00:12:15;;;;;;;3.13;2.35;;;15.70;1.00;;;;;;5065154;28;20308;-62
2022/08/21 00:14:42;;;;;;;5.15;2.33;;;15.60;1.00;;;;;;5071364;28;20227;-62
2022/08/21 00:17:09;;;;;;;3.05;2.40;;;15.60;1.00;;;;;;5065739;28;20518;-62
2022/08/21 00:19:37;;;;;;;2.78;2.17;;;15.60;1.00;;;;;;5052644;28;20204;-63
2022/08/21 00:22:04;;;;;;;2.33;2.05;;;15.60;1.00;;;;;;5059196;28;20211;-62
2022/08/21 00:24:31;;;;;;;4.45;2.30;;;15.50;1.00;;;;;;5076619;28;20386;-62
2022/08/21 00:26:58;;;;;;;3.35;2.30;;;15.50;1.00;;;;;;5072310;28;20206;-62
2022/08/21 00:29:25;;;;;;;3.05;1.95;;;15.50;1.00;;;;;;5070341;28;20199;-62
2022/08/21 00:31:52;;;;;;;2.60;2.03;;;15.50;1.00;;;;;;5072134;28;20299;-63
2022/08/21 00:34:19;;;;;;;3.78;2.30;;;15.70;1.00;;;;;;5063531;28;20601;-62
2022/08/21 00:36:47;;;;;;;3.90;1.98;;;15.30;1.00;;;;;;5064527;28;20199;-62
2022/08/21 00:39:15;;;;;;;3.50;2.03;;;15.30;1.00;;;;;;5045308;28;20219;-63
2022/08/21 00:41:42;;;;;;;3.67;2.03;;;15.40;1.00;;;;;;5090802;27;20228;-62
2022/08/21 00:44:12;;;;;;;3.55;2.72;;;15.40;1.00;;;;;;5075718;27;20201;-62
2022/08/21 00:46:39;;;;;;;4.63;2.08;;;15.30;1.00;;;;;;5070054;28;20199;-62
2022/08/21 00:49:07;;;;;;;5.03;2.25;;;15.30;1.00;;;;;;5079912;28;20230;-62
2022/08/21 00:51:37;;;;;;;3.33;1.98;;;15.30;1.00;;;;;;5066292;27;20464;-62
2022/08/21 00:54:07;;;;;;;4.35;2.30;;;12.70;1.00;;;;;;5053417;27;20234;-62
2022/08/21 00:56:35;;;;;;;4.50;2.10;;;15.60;1.00;;;;;;5071738;28;20806;-62
2022/08/21 00:59:03;;;;;;;2.60;2.28;;;15.30;1.00;;;;;;5068760;28;21045;-62
2022/08/21 01:01:30;;;;;;;4.03;2.00;;;15.30;1.00;;;;;;5060770;27;21423;-62
2022/08/21 01:03:56;;;;;;;3.60;2.40;;;15.00;1.00;;;;;;5077681;28;20430;-62
2022/08/21 01:06:24;;;;;;;2.78;2.20;;;;;;;;;;5086606;27;20199;-62
2022/08/21 01:08:51;;;;;;;5.10;2.10;;;15.50;1.00;;;;;;5043142;27;20203;-63
2022/08/21 01:11:20;;;;;;;4.43;2.55;;;15.30;1.00;;;;;;5074657;28;20781;-62
2022/08/21 01:13:49;;;;;;;7.32;2.17;;;15.30;1.00;;;;;;5074211;27;20498;-63
2022/08/21 01:16:19;;;;;;;6.78;2.08;;;15.10;1.00;;;;;;5056965;27;20814;-62
2022/08/21 01:18:48;;;;;;;3.50;2.20;;;15.10;1.00;;;;;;5072784;28;20218;-62
2022/08/21 01:21:18;;;;;;;3.45;2.15;;;15.20;1.00;;;;;;5083718;27;20203;-62
2022/08/21 01:23:48;;;;;;;5.60;2.22;;;15.10;1.00;;;;;;5076165;28;20216;-63
2022/08/21 01:26:16;;;;;;;2.40;1.95;;;15.40;1.00;;;;;;5056679;28;20196;-62
2022/08/21 01:28:49;;;;;;;3.05;2.05;;;15.20;1.00;;;;;;5078865;27;20750;-62
2022/08/21 01:31:18;;;;;;;5.30;2.42;;;15.00;1.00;;;;;;5076841;27;20211;-62
2022/08/21 01:33:45;;;;;;;2.67;2.17;;;15.30;1.00;;;;;;5079328;27;20598;-62
2022/08/21 01:36:12;;;;;;;2.83;2.08;;;15.30;1.00;;;;;;5084892;28;20206;-62
2022/08/21 01:38:40;;;;;;;5.18;2.38;;;15.30;1.00;;;;;;5081719;27;20202;-62
2022/08/21 01:41:06;;;;;;;3.38;2.17;;;15.30;1.00;;;;;;5059601;28;20200;-62
2022/08/21 01:43:33;;;;;;;7.07;2.30;;;15.30;1.00;;;;;;5083958;27;20200;-62
2022/08/21 01:46:00;;;;;;;3.25;2.30;;;15.20;1.00;;;;;;5077979;27;20202;-62
2022/08/21 01:48:27;;;;;;;6.32;2.67;;;15.40;1.00;;;;;;5087155;28;20196;-62
2022/08/21 01:50:54;;;;;;;4.88;2.20;;;15.10;1.00;;;;;;5080887;28;20195;-62
2022/08/21 01:53:21;;;;;;;4.38;2.75;;;15.00;1.00;;;;;;5078816;27;23227;-62
2022/08/21 01:55:49;;;;;;;8.57;2.42;;;14.90;1.00;;;;;;5061459;27;20344;-62
2022/08/21 01:58:16;;;;;;;3.70;2.03;;;14.80;1.00;;;;;;5070990;27;20695;-62
2022/08/21 02:00:43;;;;;;;3.72;2.50;;;14.90;1.00;;;;;;5075751;28;20560;-63
2022/08/21 02:03:09;;;;;;;4.38;2.38;;;15.00;1.00;;;;;;5066356;28;20199;-62
2022/08/21 02:05:36;;;;;;;4.35;2.60;;;14.70;1.00;;;;;;5089844;27;20207;-62
2022/08/21 02:08:06;;;;;;;5.15;2.42;;;14.80;1.00;;;;;;5092390;27;20202;-62
2022/08/21 02:10:34;;;;;;;3.88;2.75;;;10.90;1.00;;;;;;5065486;27;20203;-62
2022/08/21 02:13:02;;;;;;;8.05;2.65;;;14.90;1.00;;;;;;5075611;27;20227;-62
2022/08/21 02:15:31;;;;;;;5.85;2.38;;;14.90;1.00;;;;;;5075326;28;20224;-62
2022/08/21 02:18:01;;;;;;;7.28;2.22;;;14.70;1.00;;;;;;5075622;28;20252;-62
2022/08/21 02:20:35;;;;;;;3.38;2.65;;;15.00;1.00;;;;;;5075251;27;20203;-62
2022/08/21 02:23:02;;;;;;;3.55;2.28;;;15.10;1.00;;;;;;5081078;27;20199;-62
2022/08/21 02:25:30;;;;;;;4.15;2.42;;;14.90;1.00;;;;;;5082616;27;20208;-62
2022/08/21 02:27:57;;;;;;;4.53;2.30;;;15.00;1.00;;;;;;5062050;27;20200;-62
2022/08/21 02:30:28;;;;;;;5.00;2.28;;;15.00;1.00;;;;;;5079628;27;20215;-62
2022/08/21 02:32:56;;;;;;;4.40;2.30;;;15.00;1.00;;;;;;5077971;27;20203;-62
2022/08/21 02:35:23;;;;;;;4.15;2.60;;;15.20;1.00;;;;;;5073092;28;20223;-63
2022/08/21 02:37:53;;;;;;;4.38;2.53;;;14.90;1.00;;;;;;5075383;27;20200;-62
2022/08/21 02:40:23;;;;;;;3.40;2.40;;;14.70;1.00;;;;;;5089053;27;20230;-62
2022/08/21 02:42:49;;;;;;;5.30;2.50;;;14.80;1.00;;;;;;5051167;27;20227;-62
2022/08/21 02:45:18;;;;;;;4.40;2.00;;;14.80;1.00;;;;;;5082722;27;20200;-63
2022/08/21 02:47:50;;;;;;;3.22;2.15;;;14.80;1.00;;;;;;5075279;28;20196;-62
2022/08/21 02:50:20;;;;;;;6.43;2.40;;;14.90;4.70;;;;;;5063624;27;20224;-62
2022/08/21 02:52:47;;;;;;;3.45;2.25;;;14.90;5.00;;;;;;5072500;27;21212;-62
2022/08/21 02:55:14;;;;;;;7.97;2.50;;;14.90;1.00;;;;;;5071325;28;20224;-62
2022/08/21 02:57:41;;;;;;;4.22;2.47;;;15.20;1.00;;;;;;5069603;28;20207;-62
2022/08/21 03:00:10;;;;;;;3.03;2.22;;;15.00;1.00;;;;;;5053174;28;20218;-62
2022/08/21 03:02:37;;;;;;;3.35;2.00;;;14.90;1.00;;;;;;5074733;27;20208;-62
2022/08/21 03:05:07;;;;;;;6.47;2.63;;;15.00;1.00;;;;;;5060388;28;20686;-62
2022/08/21 03:07:34;;;;;;;3.75;2.08;;;15.00;1.00;;;;;;5087889;27;20195;-63
2022/08/21 03:10:01;;;;;;;4.25;2.30;;;14.90;1.00;;;;;;5064877;28;20195;-62
2022/08/21 03:12:28;;;;;;;8.77;2.22;;;14.90;1.00;;;;;;5073610;27;20203;-62
2022/08/21 03:14:55;;;;;;;4.03;2.33;;;15.20;1.00;;;;;;5055210;27;21577;-62
2022/08/21 03:17:22;;;;;;;3.88;2.22;;;15.20;1.00;;;;;;5072795;27;20711;-62
2022/08/21 03:19:49;;;;;;;2.35;1.90;;;15.20;1.00;;;;;;5067264;27;20211;-64
2022/08/21 03:22:17;;;;;;;8.23;2.58;;;15.20;1.00;;;;;;5086626;28;20211;-62
2022/08/21 03:24:45;;;;;;;4.47;2.38;;;15.30;1.00;;;;;;5063810;27;20579;-63
2022/08/21 03:27:12;;;;;;;7.03;2.30;;;15.50;5.60;;;;;;5074122;27;20204;-62
2022/08/21 03:29:39;;;;;;;4.53;2.35;;;15.40;3.60;;;;;;5075093;27;20199;-63
2022/08/21 03:32:08;;;;;;;5.50;2.03;;;15.70;6.90;;;;;;5063891;28;20573;-62
2022/08/21 03:34:36;;;;;;;5.13;2.20;;;14.10;4.50;;;;;;5076203;27;20765;-62
2022/08/21 03:37:03;;;;;;;6.28;2.20;;;15.60;7.30;;;;;;5078545;27;20204;-62
2022/08/21 03:39:31;;;;;;;6.13;2.28;;;15.70;1.00;;;;;;5059809;27;20211;-62
2022/08/21 03:41:59;;;;;;;3.65;2.15;;;14.70;1.00;;;;;;5080464;28;20200;-62
2022/08/21 03:44:30;;;;;;;5.57;2.30;;;15.40;1.00;;;;;;5079808;28;20677;-62
2022/08/21 03:46:57;;;;;;;5.00;2.65;;;15.60;1.00;;;;;;5057231;28;20230;-62
2022/08/21 03:49:24;;;;;;;6.30;2.25;;;15.80;1.00;;;;;;5077881;28;20199;-62
2022/08/21 03:51:51;;;;;;;6.97;2.22;;;15.40;1.00;;;;;;5075728;28;20227;-62
2022/08/21 03:54:18;;;;;;;7.65;2.15;;;15.40;1.00;;;;;;5060324;28;20226;-62
2022/08/21 03:56:47;;;;;;;4.45;2.47;;;15.30;1.00;;;;;;5077367;28;20491;-62
2022/08/21 03:59:14;;;;;;;3.60;1.90;;;15.30;1.00;;;;;;5071519;28;20199;-62
2022/08/21 04:01:51;;;;;;;3.72;1.92;;;14.80;1.00;;;;;;5053893;28;20219;-63
2022/08/21 04:04:18;;;;;;;2.55;2.10;;;15.10;1.00;;;;;;5072773;28;20203;-62
2022/08/21 04:06:44;;;;;;;5.68;2.13;;;15.10;1.00;;;;;;5073183;28;20207;-62
2022/08/21 04:09:11;;;;;;;5.68;2.70;;;14.90;1.00;;;;;;5074709;28;20204;-62
2022/08/21 04:11:38;;;;;;;3.58;2.08;;;14.80;1.00;;;;;;5079732;28;20195;-63
2022/08/21 04:14:06;;;;;;;9.07;2.90;;;14.90;1.00;;;;;;5074068;28;20226;-62
2022/08/21 04:16:33;;;;;;;7.32;2.00;;;14.90;1.00;;;;;;5062938;27;20253;-63
2022/08/21 04:19:01;;;;;;;3.58;2.25;;;15.00;1.00;;;;;;5078728;28;20204;-62
2022/08/21 04:21:28;;;;;;;6.45;2.28;;;14.80;1.00;;;;;;5077265;27;20294;-62
2022/08/21 04:23:55;;;;;;;5.30;2.15;;;14.80;1.00;;;;;;5092400;28;20203;-62
2022/08/21 04:26:23;;;;;;;3.58;1.95;;;14.70;1.00;;;;;;5078773;27;20206;-62
2022/08/21 04:28:49;;;;;;;3.75;1.80;;;14.70;1.00;;;;;;5074399;28;20200;-62
2022/08/21 04:31:18;;;;;;;4.85;2.10;;;14.80;1.00;;;;;;5084770;28;20644;-62
2022/08/21 04:33:45;;;;;;;7.43;2.38;;;14.60;1.00;;;;;;5077677;27;20234;-62
2022/08/21 04:36:12;;;;;;;3.08;2.15;;;14.80;13.50;;;;;;5083412;27;20223;-62
2022/08/21 04:38:39;;;;;;;2.45;2.25;;;14.70;12.70;;;;;;5076410;27;20199;-62
2022/08/21 04:41:06;;;;;;;2.50;2.30;;;14.80;10.20;;;;;;5074417;28;20215;-62
2022/08/21 04:43:33;;;;;;;5.18;2.30;;;14.90;1.00;;;;;;5090626;27;20196;-62
2022/08/21 04:46:00;;;;;;;4.28;2.17;;;14.80;1.00;;;;;;5081090;28;20654;-62
2022/08/21 04:48:28;;;;;;;4.75;2.08;;;15.50;1.00;;;;;;5064571;28;20204;-62
2022/08/21 04:51:01;;;;;;;6.80;2.70;;;14.90;1.00;;;;;;5080977;28;20204;-62
2022/08/21 04:53:33;;;;;;;3.25;2.00;;;14.80;1.00;;;;;;5078981;27;20326;-62
2022/08/21 04:56:04;;;;;;;3.75;2.20;;;14.90;1.00;;;;;;5082719;28;20222;-62
2022/08/21 04:58:33;;;;;;;4.45;2.60;;;11.50;1.90;;;;;;5085227;28;20364;-62
2022/08/21 05:01:02;;;;;;;3.90;2.42;;;14.90;1.00;;;;;;5080013;27;20628;-62
2022/08/21 05:03:31;;;;;;;5.45;2.80;;;15.00;1.00;;;;;;5060294;27;20258;-63
2022/08/21 05:05:58;;;;;;;4.43;2.30;;;15.00;1.00;;;;;;5089709;27;20197;-62
2022/08/21 05:08:28;;;;;;;3.50;1.92;;;15.00;1.00;;;;;;5079353;27;20210;-62
2022/08/21 05:10:55;;;;;;;6.30;2.35;;;15.00;1.00;;;;;;5082942;28;20212;-62
2022/08/21 05:13:23;;;;;;;2.50;2.15;;;;;;;;;;5080584;27;20199;-62
2022/08/21 05:15:49;;;;;;;4.43;1.90;;;14.50;1.00;;;;;;5080340;28;20223;-61
2022/08/21 05:18:16;;;;;;;2.63;2.10;;;11.50;1.00;;;;;;5040745;28;20204;-62
2022/08/21 05:23:17;;;;;;;4.43;2.10;;;15.10;1.00;;;;;;5053383;27;20544;-61
2022/08/21 05:25:44;;;;;;;3.35;2.30;;;15.40;1.00;;;;;;5008315;28;20205;-60
2022/08/21 05:28:12;;;;;;;4.45;2.45;;;15.10;1.00;;;;;;5041249;28;20211;-61
2022/08/21 05:30:40;;;;;;;3.00;2.42;;;15.10;1.00;;;;;;5029297;28;20208;-61
2022/08/21 05:33:08;;;;;;;4.28;2.53;;;15.20;1.00;;;;;;5024679;28;20212;-61
2022/08/21 05:35:35;;;;;;;8.02;2.67;;;15.10;1.00;;;;;;5042698;28;20201;-61
2022/08/21 05:38:03;;;;;;;5.13;2.50;;;15.20;1.00;;;;;;5039037;28;20200;-61
2022/08/21 05:40:31;;;;;;;4.45;2.28;;;15.20;1.00;;;;;;5029583;28;20215;-62
2022/08/21 05:42:59;;;;;;;7.70;2.58;;;15.30;1.00;;;;;;5045251;28;20911;-60
2022/08/21 05:45:28;;;;;;;5.72;2.88;;;15.50;1.00;;;;;;5029296;28;20275;-61
2022/08/21 05:47:55;;;;;;;4.80;2.58;;;15.30;1.00;;;;;;5019535;28;20220;-61
2022/08/21 05:50:22;;;;;;;6.38;2.63;;;15.30;1.00;;;;;;5049866;28;20220;-60
2022/08/21 05:52:49;;;;;;;5.50;3.15;;;15.40;10.20;;;;;;5029837;28;20235;-64
2022/08/21 05:55:16;;;;;;;6.55;3.28;;;15.50;14.40;;;;;;5041573;28;20209;-60
2022/08/21 05:57:44;;;;;;;5.35;3.20;;;15.50;20.50;;;;;;5029237;28;20236;-61
2022/08/21 06:00:13;;;;;;;4.53;3.58;;;15.50;22.60;;;;;;5034754;28;20209;-61
2022/08/21 06:02:40;;;;;;;6.55;3.95;;;15.70;34.90;;;;;;5026939;28;20255;-60
2022/08/21 06:05:07;;;;;;;8.25;4.22;;;15.60;32.10;;;;;;5003058;28;20702;-61
2022/08/21 06:07:34;;;;;;;9.20;4.50;;;15.70;36.50;;;;;;5021689;28;20198;-61
2022/08/21 06:10:13;;;;;;;9.98;4.40;;;15.90;43.00;;;;;;5016800;28;20553;-61
2022/08/21 06:15:23;;;;;;;12.02;4.82;;;16.00;45.60;;;;;;4950734;28;20211;-61
2022/08/21 06:17:49;;;;;;;7.25;4.38;;;16.40;55.00;;;;;;5042983;28;20204;-61
2022/08/21 06:20:16;;;;;;;7.07;4.93;;;16.20;52.60;;;;;;4998589;28;20212;-61
2022/08/21 06:22:43;;;;;;;5.40;4.45;;;16.30;53.10;;;;;;5007474;28;20232;-61
2022/08/21 06:25:10;;;;;;;5.32;4.25;;;16.40;51.80;;;;;;5023797;28;20204;-61
2022/08/21 06:27:37;;;;;;;10.02;4.90;;;16.50;46.50;;;;;;5023950;28;20256;-61
2022/08/21 06:30:04;;;;;;;7.22;4.53;;;16.70;35.20;;;;;;5014861;28;20713;-60
2022/08/21 06:32:32;;;;;;;8.25;4.30;;;16.60;26.40;;;;;;5042456;28;20208;-61
2022/08/21 06:35:00;;;;;;;10.68;5.00;;;;;;;;;;5001786;28;20221;-61
2022/08/21 06:37:27;;;;;;;8.32;4.70;;;16.80;26.30;;;;;;5021372;28;20232;-62
2022/08/21 06:39:54;;;;;;;8.57;5.07;;;16.80;27.20;;;;;;4995623;28;20209;-62
2022/08/21 06:42:20;;;;;;;7.38;4.60;;;17.00;19.50;;;;;;5023220;28;20249;-61
2022/08/21 06:44:48;;;;;;;10.57;5.20;;;16.90;18.10;;;;;;5033450;28;20778;-62
2022/08/21 06:47:15;;;;;;;9.70;4.53;;;17.00;14.30;;;;;;5018928;28;20201;-61
2022/08/21 06:49:43;;;;;;;10.18;4.72;;;17.10;11.50;;;;;;5037832;28;20220;-61
2022/08/21 06:52:11;;;;;;;7.05;4.80;;;17.10;6.90;;;;;;5004917;28;20216;-61
2022/08/21 06:54:39;;;;;;;8.27;5.20;;;;;;;;;;5015394;28;20201;-61
2022/08/21 06:57:06;;;;;;;11.60;5.10;;;17.20;6.70;;;;;;5013917;28;20227;-62
2022/08/21 06:59:33;;;;;;;5.97;4.90;;;17.50;3.60;;;;;;5021793;28;20207;-62
2022/08/21 07:02:00;;;;;;;9.10;4.55;;;17.30;1.00;;;;;;5024265;28;20998;-62
2022/08/21 07:04:27;;;;;;;6.10;5.25;;;17.40;1.00;;;;;;5014534;28;20671;-62
2022/08/21 07:06:55;;;;;;;7.32;4.88;;;17.40;1.00;;;;;;5003292;28;20318;-62
2022/08/21 07:09:22;;;;;;;10.75;5.85;;;17.40;1.00;;;;;;5019570;28;20809;-62
2022/08/21 07:11:53;;;;;;;10.18;5.05;;;17.40;1.00;;;;;;5024688;28;20395;-62
2022/08/21 07:14:19;;;;;;;9.77;5.25;;;17.50;1.00;;;;;;5017396;28;20212;-61
2022/08/21 07:16:46;;;;;;;10.25;5.03;;;17.70;1.00;;;;;;5027953;28;20252;-61
2022/08/21 07:19:13;;;;;;;7.75;5.40;;;17.60;1.00;;;;;;5020435;28;20259;-62
2022/08/21 07:21:40;;;;;;;12.95;6.20;;;17.60;1.00;;;;;;5001093;28;20686;-62
2022/08/21 07:24:08;;;;;;;13.07;5.10;;;18.00;4.00;;;;;;5030574;28;20205;-62
2022/08/21 07:26:35;;;;;;;6.20;3.85;;;17.80;1.00;;;;;;5009045;28;20207;-61
2022/08/21 07:29:02;;;;;;;8.32;4.82;;;18.00;1.00;;;;;;4996013;28;20262;-61
2022/08/21 07:31:29;;;;;;;8.05;4.25;;;18.30;1.00;;;;;;5034694;28;20202;-61
2022/08/21 07:33:56;;;;;;;12.88;4.75;;;17.90;1.00;;;;;;5005775;28;20210;-62
2022/08/21 07:36:23;;;;;;;7.32;3.70;;;17.90;1.00;;;;;;5031243;28;20198;-61
2022/08/21 07:38:50;;;;;;;7.20;4.00;;;18.10;1.00;;;;;;5001798;28;20217;-62
2022/08/21 07:41:21;;;;;;;7.05;3.50;;;18.10;1.00;;;;;;5024390;28;20292;-62
2022/08/21 07:43:47;;;;;;;7.50;3.30;;;18.10;1.00;;;;;;5016536;28;20225;-61
2022/08/21 07:46:15;;;;;;;6.30;3.47;;;18.30;1.00;;;;;;5011112;28;20227;-61
2022/08/21 07:48:43;;;;;;;13.30;4.05;;;18.30;1.00;;;;;;4997427;28;20709;-61
2022/08/21 07:51:12;;;;;;;6.45;3.42;;;17.00;1.00;;;;;;5010841;28;20229;-62
2022/08/21 07:53:39;;;;;;;12.85;3.75;;;18.30;1.00;;;;;;4996686;28;20206;-61
2022/08/21 07:56:08;;;;;;;3.78;3.13;;;19.80;1.00;;;;;;5017242;28;20298;-61
2022/08/21 07:58:36;;;;;;;5.38;3.50;;;18.40;1.00;;;;;;4995187;28;20244;-61
2022/08/21 08:01:03;;;;;;;7.68;3.33;;;18.50;1.00;;;;;;5000723;28;20236;-61
2022/08/21 08:03:29;;;;;;;6.35;3.15;;;18.50;1.00;;;;;;4999698;28;20237;-61
2022/08/21 08:05:57;;;;;;;4.47;2.63;;;18.50;1.00;;;;;;5023397;28;20212;-61
2022/08/21 08:08:24;;;;;;;7.07;2.83;;;18.50;1.00;;;;;;4999425;28;20206;-61
2022/08/21 08:10:51;;;;;;;4.03;2.45;;;;;;;;;;5018210;28;20201;-61
2022/08/21 08:13:18;;;;;;;8.13;3.00;;;18.60;1.00;;;;;;5010361;28;20204;-61
2022/08/21 08:15:47;;;;;;;3.65;2.47;;;18.70;1.00;;;;;;4997544;28;20233;-62
2022/08/21 08:18:13;;;;;;;6.45;2.97;;;18.70;1.00;;;;;;5021222;28;20273;-62
2022/08/21 08:20:40;;;;;;;7.20;2.90;;;18.70;1.00;;;;;;4988152;28;20525;-61
2022/08/21 08:23:07;;;;;;;10.98;3.65;;;18.70;1.00;;;;;;4991654;28;20900;-61
2022/08/21 08:25:34;;;;;;;7.45;3.00;;;18.90;1.00;;;;;;5027892;28;20836;-61
2022/08/21 08:28:01;;;;;;;7.45;2.55;;;19.10;1.00;;;;;;4988539;28;20229;-62
2022/08/21 08:30:28;;;;;;;15.93;3.33;;;19.00;1.00;;;;;;4992945;28;20225;-62
2022/08/21 08:32:57;;;;;;;7.82;2.90;;;19.00;1.00;;;;;;4991033;28;20225;-62
2022/08/21 08:35:24;;;;;;;7.57;3.25;;;19.00;99.90;;;;;;4989450;28;21490;-62
2022/08/21 08:37:52;;;;;;;7.43;2.88;;;19.00;99.90;;;;;;5025755;28;20775;-62
2022/08/21 08:40:23;;;;;;;4.78;2.60;;;19.00;99.90;;;;;;4985147;28;20258;-61
2022/08/21 08:42:50;;;;;;;6.72;2.40;;;19.00;99.90;;;;;;5019310;28;20228;-63
2022/08/21 08:45:21;;;;;;;11.23;3.20;;;19.30;99.90;;;;;;4973751;28;20296;-63
2022/08/21 08:47:55;;;;;;;5.78;3.00;;;19.30;99.90;;;;;;4988351;28;23258;-62
2022/08/21 08:50:28;;;;;;;5.50;2.85;;;19.20;99.90;;;;;;5003855;28;20766;-63
2022/08/21 08:53:01;;;;;;;6.60;3.40;;;19.30;99.90;;;;;;4994134;28;21067;-63
2022/08/21 08:55:33;;;;;;;5.55;2.50;;;19.40;99.90;;;;;;4989467;28;20710;-63
2022/08/21 08:58:02;;;;;;;11.00;2.90;;;19.30;99.90;;;;;;5005413;28;20208;-63
2022/08/21 09:00:29;;;;;;;4.90;2.75;;;19.40;99.90;;;;;;4991754;28;21355;-63
2022/08/21 09:02:58;;;;;;;3.47;2.08;;;19.40;99.90;;;;;;5004088;28;20598;-63
2022/08/21 09:05:30;;;;;;;5.35;2.15;;;19.10;99.90;;;;;;4988319;28;20320;-63
2022/08/21 09:08:30;;;;;;;5.95;2.20;;;19.70;1.00;;;;;;5005956;28;20304;-62
2022/08/21 09:11:03;;;;;;;5.03;2.15;;;19.70;99.90;;;;;;4998342;28;20220;-63
2022/08/21 09:13:44;;;;;;;6.88;2.63;;;19.70;99.90;;;;;;5015464;28;20224;-62
2022/08/21 09:16:21;;;;;;;6.80;1.95;;;19.80;17.10;;;;;;4991159;28;20213;-63
2022/08/21 09:18:58;;;;;;;7.43;2.05;;;19.70;48.80;;;;;;4987080;28;20240;-63
2022/08/21 09:21:36;;;;;;;3.92;1.90;;;19.80;99.90;;;;;;4998736;28;20237;-62
2022/08/21 09:24:04;;;;;;;4.05;1.65;;;;;;;;;;4990863;28;20717;-62
2022/08/21 09:26:37;;;;;;;4.50;2.03;;;19.90;24.80;;;;;;4980435;28;20322;-62
2022/08/21 09:29:12;;;;;;;5.28;1.63;;;20.10;1.00;;;;;;5017803;28;20205;-62
2022/08/21 09:31:40;;;;;;;2.95;1.60;;;20.20;1.00;;;;;;5006368;28;20604;-62
2022/08/21 09:34:09;;;;;;;6.38;2.03;;;20.10;1.00;;;;;;4988751;28;20808;-63
2022/08/21 09:36:40;;;;;;;5.90;2.38;;;;;;;;;;5012709;28;20256;-63
2022/08/21 09:39:09;;;;;;;6.38;2.47;;;20.50;99.90;;;;;;5006118;28;20262;-63
2022/08/21 09:41:37;;;;;;;5.75;2.05;;;20.60;13.00;;;;;;4995464;28;20800;-62
2022/08/21 09:44:06;;;;;;;5.63;2.28;;;20.70;99.90;;;;;;5000162;28;20354;-61
2022/08/21 09:46:33;;;;;;;10.43;1.95;;;20.60;1.00;;;;;;4994101;28;20228;-62
2022/08/21 09:49:03;;;;;;;6.00;2.25;;;20.80;1.00;;;;;;4981165;28;20225;-63
2022/08/21 09:51:33;;;;;;;5.60;2.22;;;20.60;1.00;;;;;;5003487;28;21174;-62
2022/08/21 09:54:16;;;;;;;10.02;1.98;;;21.30;1.00;;;;;;4966901;28;20257;-62
2022/08/21 09:59:38;;;;;;;7.65;2.45;;;20.60;1.00;;;;;;5014808;28;20657;-62
2022/08/21 10:02:26;;;;;;;6.47;2.20;;;20.90;1.00;;;;;;5005405;28;21060;-62
2022/08/21 10:04:55;;;;;;;4.85;2.22;;;21.00;99.90;;;;;;4991755;28;20711;-63
2022/08/21 10:07:25;;;;;;;6.03;2.30;;;21.10;99.90;;;;;;5007779;28;20762;-62
2022/08/21 10:10:05;;;;;;;12.13;2.55;;;21.10;99.90;;;;;;4995183;28;20860;-61
2022/08/21 10:12:40;;;;;;;6.03;2.08;;;21.00;99.90;;;;;;4987821;28;20217;-62
2022/08/21 10:15:20;;;;;;;6.25;1.98;;;20.90;99.90;;;;;;5025597;28;20239;-62
2022/08/21 10:17:59;;;;;;;4.25;2.30;;;21.00;99.90;;;;;;5004306;28;20232;-62
2022/08/21 10:20:32;;;;;;;4.40;1.60;;;21.30;1.00;;;;;;4996471;28;20314;-62
2022/08/21 10:23:12;;;;;;;3.03;1.52;;;21.50;1.00;;;;;;4993430;28;20310;-63
2022/08/21 10:25:45;;;;;;;5.57;1.67;;;21.30;1.00;;;;;;4993645;28;21089;-62
2022/08/21 10:28:18;;;;;;;4.82;2.00;;;21.60;1.00;;;;;;4974351;28;20217;-63
2022/08/21 10:30:52;;;;;;;6.93;2.00;;;21.80;1.00;;;;;;5017760;28;20204;-61
2022/08/21 10:33:26;;;;;;;5.15;1.60;;;;;;;;;;5011708;28;20228;-62
2022/08/21 10:36:01;;;;;;;7.07;1.95;;;22.40;99.90;;;;;;4979451;28;20225;-62
2022/08/21 10:38:57;;;;;;;4.40;1.70;;;21.50;99.90;;;;;;5012730;28;20217;-63
2022/08/21 10:41:36;;;;;;;4.30;1.95;;;21.70;99.90;;;;;;4999060;28;20330;-62
2022/08/21 10:44:21;;;;;;;7.68;2.03;;;21.60;99.90;;;;;;4959780;28;22131;-62
2022/08/21 10:46:55;;;;;;;3.42;1.70;;;21.30;1.00;;;;;;5015784;28;20225;-62
2022/08/21 10:49:29;;;;;;;8.48;1.88;;;21.70;1.00;;;;;;4990714;28;20367;-62
2022/08/21 10:52:11;;;;;;;2.85;1.80;;;21.60;99.90;;;;;;5013585;28;20207;-63
2022/08/21 10:54:46;;;;;;;5.45;2.03;;;21.70;99.90;;;;;;5014274;28;20205;-63
2022/08/21 10:57:23;;;;;;;5.22;1.50;;;21.70;99.90;;;;;;5011152;28;20216;-64
2022/08/21 10:59:56;;;;;;;3.20;1.67;;;22.00;99.90;;;;;;4999325;28;20198;-62
2022/08/21 11:02:30;;;;;;;3.97;1.70;;;21.90;99.90;;;;;;5021826;28;20197;-63
2022/08/21 11:05:01;;;;;;;7.75;1.70;;;22.00;62.20;;;;;;4995718;28;20229;-63
2022/08/21 11:07:31;;;;;;;5.07;1.83;;;22.00;44.10;;;;;;5004497;28;20213;-64
2022/08/21 11:10:02;;;;;;;4.72;1.90;;;22.00;99.90;;;;;;5026252;28;20210;-62
2022/08/21 11:12:39;;;;;;;2.55;1.45;;;22.10;99.90;;;;;;4995763;28;20232;-63
2022/08/21 11:15:20;;;;;;;2.95;1.25;;;22.20;1.00;;;;;;5027795;28;20201;-63
2022/08/21 11:17:55;;;;;;;3.08;1.52;;;22.00;1.00;;;;;;5014748;28;20893;-63
2022/08/21 11:20:31;;;;;;;5.82;1.92;;;22.10;1.00;;;;;;5005065;28;20213;-62
2022/08/21 11:23:03;;;;;;;2.67;1.48;;;22.10;1.00;;;;;;5005979;28;20239;-61
2022/08/21 11:25:36;;;;;;;2.35;1.40;;;22.30;1.00;;;;;;5009913;28;20394;-61
2022/08/21 11:28:11;;;;;;;3.67;1.60;;;22.40;1.00;;;;;;5010878;28;20198;-63
2022/08/21 11:30:48;;;;;;;10.13;2.10;;;22.60;1.00;;;;;;5006896;28;20197;-63
2022/08/21 11:33:28;;;;;;;4.20;1.58;;;22.50;1.00;;;;;;5023630;28;20209;-63
2022/08/21 11:36:03;;;;;;;6.10;1.80;;;22.40;1.00;;;;;;4991086;28;20812;-63
2022/08/21 11:38:37;;;;;;;5.40;1.52;;;22.40;1.00;;;;;;5003103;28;21410;-63
2022/08/21 11:41:16;;;;;;;2.42;1.38;;;22.40;1.00;;;;;;5021995;28;20216;-63
2022/08/21 11:43:47;;;;;;;4.25;1.35;;;22.40;1.00;;;;;;4997908;28;20233;-63
2022/08/21 11:46:26;;;;;;;5.22;1.85;;;22.40;1.00;;;;;;5014428;28;20206;-63
2022/08/21 11:49:06;;;;;;;3.42;1.60;;;22.50;1.00;;;;;;5024840;28;20246;-63
2022/08/21 11:51:38;;;;;;;3.20;1.52;;;22.80;1.00;;;;;;5003064;28;20204;-63
2022/08/21 11:54:13;;;;;;;2.38;1.35;;;22.70;1.00;;;;;;5002243;28;20801;-64
2022/08/21 11:56:45;;;;;;;5.47;1.27;;;22.70;1.00;;;;;;5003550;28;20225;-63
2022/08/21 11:59:20;;;;;;;3.08;1.52;;;22.60;1.00;;;;;;4994473;28;20209;-64
2022/08/21 12:01:50;;;;;;;1.15;1.05;;;22.50;1.00;;;;;;5005444;28;20247;-63
2022/08/21 12:04:24;;;;;;;6.13;1.48;;;23.70;1.00;;;;;;4993840;28;20240;-63
2022/08/21 12:07:28;;;;;;;4.68;1.52;;;22.10;1.00;;;;;;5010956;28;20209;-63
2022/08/21 12:09:58;;;;;;;4.53;1.40;;;22.40;1.00;;;;;;5003821;28;20675;-63
2022/08/21 12:12:39;;;;;;;1.42;1.30;;;22.40;1.00;;;;;;5004764;28;21304;-63
2022/08/21 12:15:24;;;;;;;3.72;1.40;;;22.70;1.00;;;;;;5017219;28;20740;-62
2022/08/21 12:18:01;;;;;;;5.18;1.40;;;22.60;1.00;;;;;;5005868;28;20245;-62
2022/08/21 12:20:43;;;;;;;6.32;1.75;;;22.80;1.00;;;;;;5000841;28;20667;-62
2022/08/21 12:23:29;;;;;;;2.60;1.42;;;22.80;1.00;;;;;;5007920;28;20256;-62
2022/08/21 12:26:21;;;;;;;4.80;1.50;;;23.00;1.00;;;;;;5009952;28;20205;-62
2022/08/21 12:28:48;;;;;;;8.38;1.63;;;23.10;1.00;;;;;;5010449;28;20209;-62
2022/08/21 12:31:25;;;;;;;10.00;1.77;;;23.10;1.00;;;;;;5009535;28;20977;-62
2022/08/21 12:33:59;;;;;;;7.03;1.73;;;23.50;1.00;;;;;;5006586;28;20296;-62
2022/08/21 12:36:45;;;;;;;4.43;1.73;;;22.60;99.90;;;;;;5004906;28;20239;-63
2022/08/21 12:39:19;;;;;;;5.25;1.70;;;22.60;1.00;;;;;;4992809;28;20237;-62
2022/08/21 12:48:42;;;;;;;1.45;1.33;;;22.40;1.00;;;;;;5000444;28;20760;-63
2022/08/21 12:51:12;;;;;;;2.38;1.63;;;22.50;99.90;;;;;;5000018;28;20240;-62
2022/08/21 12:53:45;;;;;;;2.65;1.45;;;;;;;;;;4988607;28;20303;-62
2022/08/21 12:56:14;;;;;;;2.85;1.83;;;22.70;1.00;;;;;;5024941;28;20222;-62
2022/08/21 12:58:45;;;;;;;4.43;1.48;;;22.90;99.90;;;;;;4992500;28;20225;-62
2022/08/21 13:01:19;;;;;;;2.67;1.60;;;23.10;99.90;;;;;;5025485;28;20264;-61
2022/08/21 13:03:48;;;;;;;2.38;1.50;;;23.00;99.90;;;;;;5006516;28;20240;-61
2022/08/21 13:06:17;;;;;;;2.63;1.20;;;23.20;99.90;;;;;;4997537;28;20228;-61
2022/08/21 13:08:45;;;;;;;4.47;1.77;;;23.10;99.90;;;;;;5007733;28;20207;-62
2022/08/21 13:11:16;;;;;;;2.30;1.45;;;23.30;99.90;;;;;;5020764;28;20221;-61
2022/08/21 13:13:48;;;;;;;4.13;1.48;;;23.20;99.90;;;;;;4978256;28;21461;-62
2022/08/21 13:16:21;;;;;;;4.90;1.45;;;23.20;99.90;;;;;;5008226;28;20221;-62
2022/08/21 13:18:55;;;;;;;3.85;1.52;;;;;;;;;;5003925;28;20205;-62
2022/08/21 13:21:22;;;;;;;4.38;1.70;;;;;;;;;;4975177;28;20482;-61
2022/08/21 13:23:49;;;;;;;1.90;1.50;;;23.60;1.00;;;;;;5016254;28;20217;-61
2022/08/21 13:26:18;;;;;;;3.13;1.75;;;21.60;99.90;;;;;;5021789;28;20205;-62
2022/08/21 13:28:47;;;;;;;3.60;1.55;;;23.20;99.90;;;;;;5017672;28;20205;-62